sensor_id;sensor_type;location;lat;lon;timestamp;P1;durP1;ratioP1;P2;durP2;ratioP2
12306;SDS011;6216;51.146;7.008;2022-11-11T00:02:10;7.90;;;3.27;;
12306;SDS011;6216;51.146;7.008;2022-11-11T00:04:38;8.63;;;3.47;;
12306;SDS011;6216;51.146;7.008;2022-11-11T00:07:06;5.47;;;3.30;;
12306;SDS011;6216;51.146;7.008;2022-11-11T00:09:36;8.47;;;3.73;;
12306;SDS011;6216;51.146;7.008;2022-11-11T00:12:19;7.10;;;3.20;;
12306;SDS011;6216;51.146;7.008;2022-11-11T00:14:54;8.73;;;3.47;;
12306;SDS011;6216;51.146;7.008;2022-11-11T00:17:24;5.93;;;3.67;;
12306;SDS011;6216;51.146;7.008;2022-11-11T00:20:10;8.00;;;3.93;;
12306;SDS011;6216;51.146;7.008;2022-11-11T00:23:12;14.30;;;4.80;;
12306;SDS011;6216;51.146;7.008;2022-11-11T00:26:04;7.83;;;4.00;;
12306;SDS011;6216;51.146;7.008;2022-11-11T00:28:52;6.03;;;3.57;;
12306;SDS011;6216;51.146;7.008;2022-11-11T00:31:21;8.67;;;3.77;;
12306;SDS011;6216;51.146;7.008;2022-11-11T00:33:51;6.70;;;3.53;;
12306;SDS011;6216;51.146;7.008;2022-11-11T00:36:19;3.40;;;2.77;;
12306;SDS011;6216;51.146;7.008;2022-11-11T00:38:46;3.93;;;3.27;;
12306;SDS011;6216;51.146;7.008;2022-11-11T00:41:15;5.80;;;3.47;;
12306;SDS011;6216;51.146;7.008;2022-11-11T00:43:45;5.63;;;3.10;;
12306;SDS011;6216;51.146;7.008;2022-11-11T00:46:14;6.00;;;2.93;;
12306;SDS011;6216;51.146;7.008;2022-11-11T00:49:01;8.57;;;3.63;;
12306;SDS011;6216;51.146;7.008;2022-11-11T00:51:46;4.43;;;3.70;;
12306;SDS011;6216;51.146;7.008;2022-11-11T00:54:14;5.77;;;3.47;;
12306;SDS011;6216;51.146;7.008;2022-11-11T00:56:42;6.07;;;3.87;;
12306;SDS011;6216;51.146;7.008;2022-11-11T00:59:10;6.40;;;3.10;;
12306;SDS011;6216;51.146;7.008;2022-11-11T01:01:38;9.13;;;3.60;;
12306;SDS011;6216;51.146;7.008;2022-11-11T01:04:07;7.77;;;4.13;;
12306;SDS011;6216;51.146;7.008;2022-11-11T01:06:35;7.23;;;3.00;;
12306;SDS011;6216;51.146;7.008;2022-11-11T01:09:04;4.57;;;3.40;;
12306;SDS011;6216;51.146;7.008;2022-11-11T01:11:32;4.93;;;3.63;;
12306;SDS011;6216;51.146;7.008;2022-11-11T01:14:00;7.43;;;3.30;;
12306;SDS011;6216;51.146;7.008;2022-11-11T01:16:28;9.43;;;3.80;;
12306;SDS011;6216;51.146;7.008;2022-11-11T01:18:56;9.27;;;4.00;;
12306;SDS011;6216;51.146;7.008;2022-11-11T01:21:25;4.67;;;3.73;;
12306;SDS011;6216;51.146;7.008;2022-11-11T01:23:53;5.67;;;3.63;;
12306;SDS011;6216;51.146;7.008;2022-11-11T01:26:22;4.10;;;3.07;;
12306;SDS011;6216;51.146;7.008;2022-11-11T01:28:57;4.93;;;3.47;;
12306;SDS011;6216;51.146;7.008;2022-11-11T01:31:25;7.30;;;2.87;;
12306;SDS011;6216;51.146;7.008;2022-11-11T01:33:53;6.23;;;3.17;;
12306;SDS011;6216;51.146;7.008;2022-11-11T01:36:22;8.37;;;3.30;;
12306;SDS011;6216;51.146;7.008;2022-11-11T01:38:54;6.87;;;3.33;;
12306;SDS011;6216;51.146;7.008;2022-11-11T01:41:24;7.83;;;4.10;;
12306;SDS011;6216;51.146;7.008;2022-11-11T01:44:01;6.80;;;3.03;;
12306;SDS011;6216;51.146;7.008;2022-11-11T01:46:41;6.00;;;2.93;;
12306;SDS011;6216;51.146;7.008;2022-11-11T01:49:18;5.73;;;3.07;;
12306;SDS011;6216;51.146;7.008;2022-11-11T01:51:52;6.10;;;3.80;;
12306;SDS011;6216;51.146;7.008;2022-11-11T01:54:27;5.37;;;3.60;;
12306;SDS011;6216;51.146;7.008;2022-11-11T01:57:00;5.53;;;3.07;;
12306;SDS011;6216;51.146;7.008;2022-11-11T01:59:33;4.90;;;3.30;;
12306;SDS011;6216;51.146;7.008;2022-11-11T02:02:04;4.97;;;3.20;;
12306;SDS011;6216;51.146;7.008;2022-11-11T02:04:37;4.03;;;3.50;;
12306;SDS011;6216;51.146;7.008;2022-11-11T02:07:24;7.03;;;3.50;;
12306;SDS011;6216;51.146;7.008;2022-11-11T02:09:54;6.47;;;3.00;;
12306;SDS011;6216;51.146;7.008;2022-11-11T02:12:23;7.30;;;3.90;;
12306;SDS011;6216;51.146;7.008;2022-11-11T02:15:09;6.77;;;3.57;;
12306;SDS011;6216;51.146;7.008;2022-11-11T02:17:38;4.23;;;2.87;;
12306;SDS011;6216;51.146;7.008;2022-11-11T02:20:07;7.80;;;3.93;;
12306;SDS011;6216;51.146;7.008;2022-11-11T02:22:39;7.30;;;3.43;;
12306;SDS011;6216;51.146;7.008;2022-11-11T02:25:12;8.83;;;3.53;;
12306;SDS011;6216;51.146;7.008;2022-11-11T02:27:45;5.60;;;3.77;;
12306;SDS011;6216;51.146;7.008;2022-11-11T02:30:16;5.20;;;3.40;;
12306;SDS011;6216;51.146;7.008;2022-11-11T02:32:45;4.33;;;3.33;;
12306;SDS011;6216;51.146;7.008;2022-11-11T02:35:15;5.27;;;3.30;;
12306;SDS011;6216;51.146;7.008;2022-11-11T02:37:45;6.80;;;3.57;;
12306;SDS011;6216;51.146;7.008;2022-11-11T02:40:19;11.20;;;3.60;;
12306;SDS011;6216;51.146;7.008;2022-11-11T02:42:49;8.43;;;3.07;;
12306;SDS011;6216;51.146;7.008;2022-11-11T02:45:17;3.10;;;2.80;;
12306;SDS011;6216;51.146;7.008;2022-11-11T02:47:45;4.70;;;3.20;;
12306;SDS011;6216;51.146;7.008;2022-11-11T02:50:13;4.27;;;2.87;;
12306;SDS011;6216;51.146;7.008;2022-11-11T02:52:42;9.90;;;3.40;;
12306;SDS011;6216;51.146;7.008;2022-11-11T02:55:10;4.90;;;3.20;;
12306;SDS011;6216;51.146;7.008;2022-11-11T02:57:39;4.50;;;3.40;;
12306;SDS011;6216;51.146;7.008;2022-11-11T03:00:08;4.17;;;3.37;;
12306;SDS011;6216;51.146;7.008;2022-11-11T03:02:37;8.90;;;3.40;;
12306;SDS011;6216;51.146;7.008;2022-11-11T03:05:05;9.43;;;4.00;;
12306;SDS011;6216;51.146;7.008;2022-11-11T03:07:33;3.43;;;3.13;;
12306;SDS011;6216;51.146;7.008;2022-11-11T03:10:01;6.57;;;3.93;;
12306;SDS011;6216;51.146;7.008;2022-11-11T03:12:29;3.80;;;3.20;;
12306;SDS011;6216;51.146;7.008;2022-11-11T03:14:59;5.50;;;3.43;;
12306;SDS011;6216;51.146;7.008;2022-11-11T03:17:27;6.00;;;3.37;;
12306;SDS011;6216;51.146;7.008;2022-11-11T03:20:10;12.33;;;4.43;;
12306;SDS011;6216;51.146;7.008;2022-11-11T03:22:59;3.97;;;3.40;;
12306;SDS011;6216;51.146;7.008;2022-11-11T03:25:28;3.67;;;3.07;;
12306;SDS011;6216;51.146;7.008;2022-11-11T03:28:05;5.07;;;3.37;;
12306;SDS011;6216;51.146;7.008;2022-11-11T03:30:35;10.37;;;3.37;;
12306;SDS011;6216;51.146;7.008;2022-11-11T03:33:04;5.73;;;3.63;;
12306;SDS011;6216;51.146;7.008;2022-11-11T03:35:32;7.17;;;3.73;;
12306;SDS011;6216;51.146;7.008;2022-11-11T03:38:01;7.60;;;4.03;;
12306;SDS011;6216;51.146;7.008;2022-11-11T03:40:41;4.77;;;3.37;;
12306;SDS011;6216;51.146;7.008;2022-11-11T03:43:09;4.23;;;3.80;;
12306;SDS011;6216;51.146;7.008;2022-11-11T03:45:39;7.73;;;3.40;;
12306;SDS011;6216;51.146;7.008;2022-11-11T03:48:07;7.23;;;3.87;;
12306;SDS011;6216;51.146;7.008;2022-11-11T03:50:35;5.93;;;3.30;;
12306;SDS011;6216;51.146;7.008;2022-11-11T03:53:03;5.87;;;3.80;;
12306;SDS011;6216;51.146;7.008;2022-11-11T03:55:31;6.73;;;4.23;;
12306;SDS011;6216;51.146;7.008;2022-11-11T03:57:59;5.13;;;4.10;;
12306;SDS011;6216;51.146;7.008;2022-11-11T04:00:27;4.27;;;3.57;;
12306;SDS011;6216;51.146;7.008;2022-11-11T04:03:04;7.07;;;3.93;;
12306;SDS011;6216;51.146;7.008;2022-11-11T04:05:51;4.90;;;3.67;;
12306;SDS011;6216;51.146;7.008;2022-11-11T04:08:42;5.23;;;3.57;;
12306;SDS011;6216;51.146;7.008;2022-11-11T04:11:28;4.60;;;3.10;;
12306;SDS011;6216;51.146;7.008;2022-11-11T04:13:59;5.97;;;4.10;;
12306;SDS011;6216;51.146;7.008;2022-11-11T04:16:46;3.37;;;3.07;;
12306;SDS011;6216;51.146;7.008;2022-11-11T04:19:16;5.10;;;3.50;;
12306;SDS011;6216;51.146;7.008;2022-11-11T04:22:00;7.50;;;3.70;;
12306;SDS011;6216;51.146;7.008;2022-11-11T04:24:28;7.50;;;3.43;;
12306;SDS011;6216;51.146;7.008;2022-11-11T04:27:15;4.23;;;3.70;;
12306;SDS011;6216;51.146;7.008;2022-11-11T04:29:43;5.30;;;3.87;;
12306;SDS011;6216;51.146;7.008;2022-11-11T04:32:13;5.17;;;3.17;;
12306;SDS011;6216;51.146;7.008;2022-11-11T04:35:02;6.47;;;3.17;;
12306;SDS011;6216;51.146;7.008;2022-11-11T04:37:32;7.00;;;3.37;;
12306;SDS011;6216;51.146;7.008;2022-11-11T04:40:01;5.07;;;3.10;;
12306;SDS011;6216;51.146;7.008;2022-11-11T04:42:47;6.20;;;4.00;;
12306;SDS011;6216;51.146;7.008;2022-11-11T04:45:15;4.77;;;3.13;;
12306;SDS011;6216;51.146;7.008;2022-11-11T04:47:56;3.60;;;3.03;;
12306;SDS011;6216;51.146;7.008;2022-11-11T04:50:27;6.53;;;3.80;;
12306;SDS011;6216;51.146;7.008;2022-11-11T04:52:56;10.47;;;3.97;;
12306;SDS011;6216;51.146;7.008;2022-11-11T04:55:24;4.53;;;3.30;;
12306;SDS011;6216;51.146;7.008;2022-11-11T04:58:10;3.70;;;3.37;;
12306;SDS011;6216;51.146;7.008;2022-11-11T05:00:38;5.60;;;2.90;;
12306;SDS011;6216;51.146;7.008;2022-11-11T05:03:08;5.40;;;3.43;;
12306;SDS011;6216;51.146;7.008;2022-11-11T05:05:44;4.90;;;4.20;;
12306;SDS011;6216;51.146;7.008;2022-11-11T05:08:33;7.93;;;4.20;;
12306;SDS011;6216;51.146;7.008;2022-11-11T05:11:20;4.87;;;3.83;;
12306;SDS011;6216;51.146;7.008;2022-11-11T05:13:49;7.00;;;3.20;;
12306;SDS011;6216;51.146;7.008;2022-11-11T05:16:36;4.63;;;3.90;;
12306;SDS011;6216;51.146;7.008;2022-11-11T05:19:24;5.57;;;3.90;;
12306;SDS011;6216;51.146;7.008;2022-11-11T05:22:13;5.23;;;3.90;;
12306;SDS011;6216;51.146;7.008;2022-11-11T05:24:45;5.13;;;3.80;;
12306;SDS011;6216;51.146;7.008;2022-11-11T05:27:30;6.13;;;4.33;;
12306;SDS011;6216;51.146;7.008;2022-11-11T05:29:58;6.97;;;4.20;;
12306;SDS011;6216;51.146;7.008;2022-11-11T05:32:26;4.80;;;3.80;;
12306;SDS011;6216;51.146;7.008;2022-11-11T05:34:54;5.50;;;4.20;;
12306;SDS011;6216;51.146;7.008;2022-11-11T05:37:23;10.93;;;4.80;;
12306;SDS011;6216;51.146;7.008;2022-11-11T05:39:52;10.40;;;3.73;;
12306;SDS011;6216;51.146;7.008;2022-11-11T05:42:19;9.73;;;4.20;;
12306;SDS011;6216;51.146;7.008;2022-11-11T05:44:47;7.80;;;4.43;;
12306;SDS011;6216;51.146;7.008;2022-11-11T05:47:15;6.43;;;3.80;;
12306;SDS011;6216;51.146;7.008;2022-11-11T05:49:43;5.33;;;3.93;;
12306;SDS011;6216;51.146;7.008;2022-11-11T05:52:12;5.40;;;4.10;;
12306;SDS011;6216;51.146;7.008;2022-11-11T05:54:43;7.87;;;4.37;;
12306;SDS011;6216;51.146;7.008;2022-11-11T05:57:12;5.20;;;4.10;;
12306;SDS011;6216;51.146;7.008;2022-11-11T05:59:40;5.80;;;3.87;;
12306;SDS011;6216;51.146;7.008;2022-11-11T06:02:08;5.27;;;4.23;;
12306;SDS011;6216;51.146;7.008;2022-11-11T06:04:37;7.20;;;3.97;;
12306;SDS011;6216;51.146;7.008;2022-11-11T06:07:05;7.70;;;4.17;;
12306;SDS011;6216;51.146;7.008;2022-11-11T06:09:33;4.67;;;3.77;;
12306;SDS011;6216;51.146;7.008;2022-11-11T06:12:02;4.03;;;3.63;;
12306;SDS011;6216;51.146;7.008;2022-11-11T06:14:30;6.47;;;2.90;;
12306;SDS011;6216;51.146;7.008;2022-11-11T06:16:58;3.83;;;3.07;;
12306;SDS011;6216;51.146;7.008;2022-11-11T06:19:26;5.37;;;3.90;;
12306;SDS011;6216;51.146;7.008;2022-11-11T06:21:53;4.43;;;3.33;;
12306;SDS011;6216;51.146;7.008;2022-11-11T06:24:25;3.40;;;3.03;;
12306;SDS011;6216;51.146;7.008;2022-11-11T06:26:53;3.40;;;3.03;;
12306;SDS011;6216;51.146;7.008;2022-11-11T06:29:22;6.63;;;3.43;;
12306;SDS011;6216;51.146;7.008;2022-11-11T06:31:50;7.23;;;2.90;;
12306;SDS011;6216;51.146;7.008;2022-11-11T06:34:18;4.83;;;3.23;;
12306;SDS011;6216;51.146;7.008;2022-11-11T06:36:46;6.40;;;3.73;;
12306;SDS011;6216;51.146;7.008;2022-11-11T06:39:14;8.27;;;3.20;;
12306;SDS011;6216;51.146;7.008;2022-11-11T06:41:41;4.47;;;3.50;;
12306;SDS011;6216;51.146;7.008;2022-11-11T06:44:09;6.37;;;3.60;;
12306;SDS011;6216;51.146;7.008;2022-11-11T06:46:38;6.30;;;3.17;;
12306;SDS011;6216;51.146;7.008;2022-11-11T06:49:06;4.77;;;3.47;;
12306;SDS011;6216;51.146;7.008;2022-11-11T06:51:34;3.23;;;2.80;;
12306;SDS011;6216;51.146;7.008;2022-11-11T06:54:02;5.10;;;3.73;;
12306;SDS011;6216;51.146;7.008;2022-11-11T06:56:31;6.70;;;3.37;;
12306;SDS011;6216;51.146;7.008;2022-11-11T06:58:59;5.57;;;3.20;;
12306;SDS011;6216;51.146;7.008;2022-11-11T07:01:26;3.30;;;3.00;;
12306;SDS011;6216;51.146;7.008;2022-11-11T07:03:56;4.57;;;3.03;;
12306;SDS011;6216;51.146;7.008;2022-11-11T07:06:24;5.37;;;3.70;;
12306;SDS011;6216;51.146;7.008;2022-11-11T07:08:52;6.00;;;2.63;;
12306;SDS011;6216;51.146;7.008;2022-11-11T07:11:19;4.87;;;3.00;;
12306;SDS011;6216;51.146;7.008;2022-11-11T07:13:47;4.17;;;3.30;;
12306;SDS011;6216;51.146;7.008;2022-11-11T07:16:15;5.37;;;3.70;;
12306;SDS011;6216;51.146;7.008;2022-11-11T07:18:43;5.57;;;3.60;;
12306;SDS011;6216;51.146;7.008;2022-11-11T07:21:12;4.43;;;3.57;;
12306;SDS011;6216;51.146;7.008;2022-11-11T07:23:40;4.97;;;3.33;;
12306;SDS011;6216;51.146;7.008;2022-11-11T07:26:08;5.57;;;3.07;;
12306;SDS011;6216;51.146;7.008;2022-11-11T07:28:36;5.73;;;3.70;;
12306;SDS011;6216;51.146;7.008;2022-11-11T07:31:11;6.50;;;2.90;;
12306;SDS011;6216;51.146;7.008;2022-11-11T07:33:39;3.27;;;2.63;;
12306;SDS011;6216;51.146;7.008;2022-11-11T07:36:07;3.83;;;2.80;;
12306;SDS011;6216;51.146;7.008;2022-11-11T07:38:35;5.77;;;3.07;;
12306;SDS011;6216;51.146;7.008;2022-11-11T07:43:31;4.83;;;3.10;;
12306;SDS011;6216;51.146;7.008;2022-11-11T07:45:59;5.47;;;3.30;;
12306;SDS011;6216;51.146;7.008;2022-11-11T07:48:28;4.60;;;3.10;;
12306;SDS011;6216;51.146;7.008;2022-11-11T07:50:56;5.93;;;3.67;;
12306;SDS011;6216;51.146;7.008;2022-11-11T07:53:24;5.57;;;2.80;;
12306;SDS011;6216;51.146;7.008;2022-11-11T07:55:53;4.93;;;2.80;;
12306;SDS011;6216;51.146;7.008;2022-11-11T07:58:21;5.67;;;3.30;;
12306;SDS011;6216;51.146;7.008;2022-11-11T08:00:49;3.67;;;3.10;;
12306;SDS011;6216;51.146;7.008;2022-11-11T08:03:17;4.90;;;2.93;;
12306;SDS011;6216;51.146;7.008;2022-11-11T08:05:46;6.07;;;3.07;;
12306;SDS011;6216;51.146;7.008;2022-11-11T08:08:14;4.27;;;3.27;;
12306;SDS011;6216;51.146;7.008;2022-11-11T08:10:42;4.40;;;3.20;;
12306;SDS011;6216;51.146;7.008;2022-11-11T08:13:10;4.10;;;2.97;;
12306;SDS011;6216;51.146;7.008;2022-11-11T08:15:56;5.57;;;2.43;;
12306;SDS011;6216;51.146;7.008;2022-11-11T08:18:24;5.60;;;2.90;;
12306;SDS011;6216;51.146;7.008;2022-11-11T08:20:53;5.00;;;3.20;;
12306;SDS011;6216;51.146;7.008;2022-11-11T08:23:21;3.67;;;2.33;;
12306;SDS011;6216;51.146;7.008;2022-11-11T08:26:17;5.17;;;2.90;;
12306;SDS011;6216;51.146;7.008;2022-11-11T08:28:54;3.30;;;2.50;;
12306;SDS011;6216;51.146;7.008;2022-11-11T08:31:22;7.57;;;2.93;;
12306;SDS011;6216;51.146;7.008;2022-11-11T08:33:50;3.80;;;2.67;;
12306;SDS011;6216;51.146;7.008;2022-11-11T08:36:19;4.10;;;2.67;;
12306;SDS011;6216;51.146;7.008;2022-11-11T08:38:48;4.13;;;2.80;;
12306;SDS011;6216;51.146;7.008;2022-11-11T08:41:16;3.60;;;2.90;;
12306;SDS011;6216;51.146;7.008;2022-11-11T08:43:46;7.37;;;2.70;;
12306;SDS011;6216;51.146;7.008;2022-11-11T08:46:17;5.23;;;2.97;;
12306;SDS011;6216;51.146;7.008;2022-11-11T08:48:45;2.97;;;2.27;;
12306;SDS011;6216;51.146;7.008;2022-11-11T08:51:13;6.27;;;2.77;;
12306;SDS011;6216;51.146;7.008;2022-11-11T08:53:43;5.17;;;2.93;;
12306;SDS011;6216;51.146;7.008;2022-11-11T08:56:11;3.73;;;2.97;;
12306;SDS011;6216;51.146;7.008;2022-11-11T08:58:39;3.77;;;3.00;;
12306;SDS011;6216;51.146;7.008;2022-11-11T09:01:09;6.00;;;3.20;;
12306;SDS011;6216;51.146;7.008;2022-11-11T09:03:40;5.03;;;3.20;;
12306;SDS011;6216;51.146;7.008;2022-11-11T09:06:09;5.50;;;2.87;;
12306;SDS011;6216;51.146;7.008;2022-11-11T09:08:40;5.50;;;3.10;;
12306;SDS011;6216;51.146;7.008;2022-11-11T09:11:10;4.27;;;2.83;;
12306;SDS011;6216;51.146;7.008;2022-11-11T09:13:39;4.43;;;2.60;;
12306;SDS011;6216;51.146;7.008;2022-11-11T09:16:07;5.30;;;2.87;;
12306;SDS011;6216;51.146;7.008;2022-11-11T09:18:35;3.30;;;2.50;;
12306;SDS011;6216;51.146;7.008;2022-11-11T09:21:03;6.20;;;2.87;;
12306;SDS011;6216;51.146;7.008;2022-11-11T09:23:31;2.53;;;2.20;;
12306;SDS011;6216;51.146;7.008;2022-11-11T09:26:01;6.33;;;2.77;;
12306;SDS011;6216;51.146;7.008;2022-11-11T09:28:30;4.60;;;2.47;;
12306;SDS011;6216;51.146;7.008;2022-11-11T09:30:59;5.00;;;2.50;;
12306;SDS011;6216;51.146;7.008;2022-11-11T09:33:50;2.97;;;2.50;;
12306;SDS011;6216;51.146;7.008;2022-11-11T09:36:35;5.97;;;2.40;;
12306;SDS011;6216;51.146;7.008;2022-11-11T09:43:10;3.67;;;2.70;;
12306;SDS011;6216;51.146;7.008;2022-11-11T09:46:15;2.73;;;2.17;;
12306;SDS011;6216;51.146;7.008;2022-11-11T09:51:50;4.80;;;1.97;;
12306;SDS011;6216;51.146;7.008;2022-11-11T09:54:25;3.97;;;2.40;;
12306;SDS011;6216;51.146;7.008;2022-11-11T09:56:58;3.90;;;2.73;;
12306;SDS011;6216;51.146;7.008;2022-11-11T09:59:33;3.10;;;2.80;;
12306;SDS011;6216;51.146;7.008;2022-11-11T10:02:11;4.13;;;2.53;;
12306;SDS011;6216;51.146;7.008;2022-11-11T10:04:48;5.37;;;3.00;;
12306;SDS011;6216;51.146;7.008;2022-11-11T10:07:25;4.63;;;2.83;;
12306;SDS011;6216;51.146;7.008;2022-11-11T10:10:03;9.20;;;2.83;;
12306;SDS011;6216;51.146;7.008;2022-11-11T10:12:39;3.70;;;2.83;;
12306;SDS011;6216;51.146;7.008;2022-11-11T10:15:14;3.83;;;2.87;;
12306;SDS011;6216;51.146;7.008;2022-11-11T10:17:44;3.33;;;2.70;;
12306;SDS011;6216;51.146;7.008;2022-11-11T10:20:27;4.43;;;3.40;;
12306;SDS011;6216;51.146;7.008;2022-11-11T10:22:59;3.03;;;2.57;;
12306;SDS011;6216;51.146;7.008;2022-11-11T10:25:31;3.30;;;2.40;;
12306;SDS011;6216;51.146;7.008;2022-11-11T10:28:00;4.37;;;2.80;;
12306;SDS011;6216;51.146;7.008;2022-11-11T10:30:31;4.07;;;2.47;;
12306;SDS011;6216;51.146;7.008;2022-11-11T10:33:00;3.20;;;2.70;;
12306;SDS011;6216;51.146;7.008;2022-11-11T10:35:31;2.97;;;2.37;;
12306;SDS011;6216;51.146;7.008;2022-11-11T10:38:05;4.63;;;2.43;;
12306;SDS011;6216;51.146;7.008;2022-11-11T10:40:47;2.87;;;2.43;;
12306;SDS011;6216;51.146;7.008;2022-11-11T10:43:20;2.97;;;2.40;;
12306;SDS011;6216;51.146;7.008;2022-11-11T10:45:53;5.43;;;2.53;;
12306;SDS011;6216;51.146;7.008;2022-11-11T10:48:29;3.93;;;2.13;;
12306;SDS011;6216;51.146;7.008;2022-11-11T10:51:09;2.30;;;2.10;;
12306;SDS011;6216;51.146;7.008;2022-11-11T10:53:40;2.33;;;2.00;;
12306;SDS011;6216;51.146;7.008;2022-11-11T10:56:16;3.17;;;2.53;;
12306;SDS011;6216;51.146;7.008;2022-11-11T10:58:52;2.70;;;2.20;;
12306;SDS011;6216;51.146;7.008;2022-11-11T11:01:27;4.10;;;2.27;;
12306;SDS011;6216;51.146;7.008;2022-11-11T11:04:01;3.77;;;2.20;;
12306;SDS011;6216;51.146;7.008;2022-11-11T11:06:32;5.17;;;2.17;;
12306;SDS011;6216;51.146;7.008;2022-11-11T11:09:07;2.30;;;1.90;;
12306;SDS011;6216;51.146;7.008;2022-11-11T11:11:40;3.87;;;2.33;;
12306;SDS011;6216;51.146;7.008;2022-11-11T11:14:15;2.67;;;1.90;;
12306;SDS011;6216;51.146;7.008;2022-11-11T11:16:51;3.47;;;2.20;;
12306;SDS011;6216;51.146;7.008;2022-11-11T11:19:22;4.50;;;2.07;;
12306;SDS011;6216;51.146;7.008;2022-11-11T11:21:52;2.27;;;1.77;;
12306;SDS011;6216;51.146;7.008;2022-11-11T11:24:22;2.87;;;1.70;;
12306;SDS011;6216;51.146;7.008;2022-11-11T11:26:52;4.80;;;2.20;;
12306;SDS011;6216;51.146;7.008;2022-11-11T11:29:25;2.10;;;1.83;;
12306;SDS011;6216;51.146;7.008;2022-11-11T11:31:56;5.07;;;1.77;;
12306;SDS011;6216;51.146;7.008;2022-11-11T11:34:41;2.60;;;2.07;;
12306;SDS011;6216;51.146;7.008;2022-11-11T11:37:12;2.30;;;1.97;;
12306;SDS011;6216;51.146;7.008;2022-11-11T11:39:40;2.33;;;1.70;;
12306;SDS011;6216;51.146;7.008;2022-11-11T11:42:08;1.73;;;1.50;;
12306;SDS011;6216;51.146;7.008;2022-11-11T11:44:54;2.63;;;1.67;;
12306;SDS011;6216;51.146;7.008;2022-11-11T11:47:28;3.53;;;1.63;;
12306;SDS011;6216;51.146;7.008;2022-11-11T11:50:20;2.63;;;2.00;;
12306;SDS011;6216;51.146;7.008;2022-11-11T11:53:00;2.43;;;1.67;;
12306;SDS011;6216;51.146;7.008;2022-11-11T11:55:41;2.00;;;1.50;;
12306;SDS011;6216;51.146;7.008;2022-11-11T11:58:18;1.60;;;1.50;;
12306;SDS011;6216;51.146;7.008;2022-11-11T12:00:55;1.60;;;1.47;;
12306;SDS011;6216;51.146;7.008;2022-11-11T12:03:40;3.03;;;1.70;;
12306;SDS011;6216;51.146;7.008;2022-11-11T12:06:21;3.73;;;1.77;;
12306;SDS011;6216;51.146;7.008;2022-11-11T12:09:00;3.10;;;1.80;;
12306;SDS011;6216;51.146;7.008;2022-11-11T12:11:41;1.83;;;1.40;;
12306;SDS011;6216;51.146;7.008;2022-11-11T12:14:25;1.70;;;1.43;;
12306;SDS011;6216;51.146;7.008;2022-11-11T12:17:06;2.70;;;1.40;;
12306;SDS011;6216;51.146;7.008;2022-11-11T12:19:46;1.47;;;1.37;;
12306;SDS011;6216;51.146;7.008;2022-11-11T12:22:24;2.77;;;1.87;;
12306;SDS011;6216;51.146;7.008;2022-11-11T12:25:00;3.70;;;1.80;;
12306;SDS011;6216;51.146;7.008;2022-11-11T12:27:39;2.80;;;1.40;;
12306;SDS011;6216;51.146;7.008;2022-11-11T12:30:18;3.63;;;1.43;;
12306;SDS011;6216;51.146;7.008;2022-11-11T12:33:12;3.57;;;2.63;;
12306;SDS011;6216;51.146;7.008;2022-11-11T12:36:09;2.77;;;2.13;;
12306;SDS011;6216;51.146;7.008;2022-11-11T12:38:49;2.67;;;1.60;;
12306;SDS011;6216;51.146;7.008;2022-11-11T12:41:30;2.07;;;1.40;;
12306;SDS011;6216;51.146;7.008;2022-11-11T12:44:10;2.13;;;1.63;;
12306;SDS011;6216;51.146;7.008;2022-11-11T12:46:41;2.60;;;1.40;;
12306;SDS011;6216;51.146;7.008;2022-11-11T12:49:28;2.17;;;1.50;;
12306;SDS011;6216;51.146;7.008;2022-11-11T12:52:14;1.80;;;1.37;;
12306;SDS011;6216;51.146;7.008;2022-11-11T12:54:58;2.67;;;1.70;;
12306;SDS011;6216;51.146;7.008;2022-11-11T12:57:38;2.97;;;1.30;;
12306;SDS011;6216;51.146;7.008;2022-11-11T13:00:18;2.27;;;1.60;;
12306;SDS011;6216;51.146;7.008;2022-11-11T13:02:53;1.97;;;1.30;;
12306;SDS011;6216;51.146;7.008;2022-11-11T13:05:33;2.73;;;1.30;;
12306;SDS011;6216;51.146;7.008;2022-11-11T13:08:11;1.67;;;1.43;;
12306;SDS011;6216;51.146;7.008;2022-11-11T13:10:58;1.63;;;1.27;;
12306;SDS011;6216;51.146;7.008;2022-11-11T13:13:36;1.53;;;1.37;;
12306;SDS011;6216;51.146;7.008;2022-11-11T13:16:12;2.30;;;1.27;;
12306;SDS011;6216;51.146;7.008;2022-11-11T13:18:44;2.53;;;1.50;;
12306;SDS011;6216;51.146;7.008;2022-11-11T13:21:18;2.33;;;1.40;;
12306;SDS011;6216;51.146;7.008;2022-11-11T13:23:52;1.57;;;1.43;;
12306;SDS011;6216;51.146;7.008;2022-11-11T13:26:25;2.73;;;1.60;;
12306;SDS011;6216;51.146;7.008;2022-11-11T13:29:00;3.07;;;1.90;;
12306;SDS011;6216;51.146;7.008;2022-11-11T13:31:44;2.00;;;1.60;;
12306;SDS011;6216;51.146;7.008;2022-11-11T13:34:15;2.10;;;1.30;;
12306;SDS011;6216;51.146;7.008;2022-11-11T13:36:45;1.93;;;1.50;;
12306;SDS011;6216;51.146;7.008;2022-11-11T13:39:23;2.93;;;1.90;;
12306;SDS011;6216;51.146;7.008;2022-11-11T13:41:54;1.73;;;1.17;;
12306;SDS011;6216;51.146;7.008;2022-11-11T13:44:24;1.10;;;1.10;;
12306;SDS011;6216;51.146;7.008;2022-11-11T13:46:58;11.63;;;10.10;;
12306;SDS011;6216;51.146;7.008;2022-11-11T13:49:30;1.90;;;1.07;;
12306;SDS011;6216;51.146;7.008;2022-11-11T13:52:01;2.20;;;1.40;;
12306;SDS011;6216;51.146;7.008;2022-11-11T13:54:32;1.33;;;1.00;;
12306;SDS011;6216;51.146;7.008;2022-11-11T13:57:02;1.10;;;1.00;;
12306;SDS011;6216;51.146;7.008;2022-11-11T13:59:35;2.40;;;1.20;;
12306;SDS011;6216;51.146;7.008;2022-11-11T14:02:24;1.80;;;1.20;;
12306;SDS011;6216;51.146;7.008;2022-11-11T14:07:50;2.43;;;0.97;;
12306;SDS011;6216;51.146;7.008;2022-11-11T14:13:34;1.53;;;1.43;;
12306;SDS011;6216;51.146;7.008;2022-11-11T14:16:06;4.33;;;2.67;;
12306;SDS011;6216;51.146;7.008;2022-11-11T14:18:38;2.90;;;2.60;;
12306;SDS011;6216;51.146;7.008;2022-11-11T14:21:08;3.43;;;3.10;;
12306;SDS011;6216;51.146;7.008;2022-11-11T14:23:37;3.00;;;2.30;;
12306;SDS011;6216;51.146;7.008;2022-11-11T14:26:24;2.87;;;1.97;;
12306;SDS011;6216;51.146;7.008;2022-11-11T14:28:56;4.23;;;2.30;;
12306;SDS011;6216;51.146;7.008;2022-11-11T14:31:34;2.63;;;2.10;;
12306;SDS011;6216;51.146;7.008;2022-11-11T14:34:31;2.83;;;2.27;;
12306;SDS011;6216;51.146;7.008;2022-11-11T14:37:25;2.63;;;2.13;;
12306;SDS011;6216;51.146;7.008;2022-11-11T14:40:08;4.43;;;2.87;;
12306;SDS011;6216;51.146;7.008;2022-11-11T14:42:43;4.60;;;4.00;;
12306;SDS011;6216;51.146;7.008;2022-11-11T14:54:34;1.23;;;1.07;;
12306;SDS011;6216;51.146;7.008;2022-11-11T14:57:17;1.33;;;1.00;;
12306;SDS011;6216;51.146;7.008;2022-11-11T15:03:43;1.53;;;1.20;;
12306;SDS011;6216;51.146;7.008;2022-11-11T15:06:15;2.77;;;1.10;;
12306;SDS011;6216;51.146;7.008;2022-11-11T15:08:49;2.37;;;1.30;;
12306;SDS011;6216;51.146;7.008;2022-11-11T15:11:24;2.70;;;1.10;;
12306;SDS011;6216;51.146;7.008;2022-11-11T15:14:03;1.37;;;1.17;;
12306;SDS011;6216;51.146;7.008;2022-11-11T15:16:57;1.27;;;1.00;;
12306;SDS011;6216;51.146;7.008;2022-11-11T15:19:45;3.53;;;1.40;;
12306;SDS011;6216;51.146;7.008;2022-11-11T15:22:29;1.97;;;1.33;;
12306;SDS011;6216;51.146;7.008;2022-11-11T15:25:26;2.10;;;1.23;;
12306;SDS011;6216;51.146;7.008;2022-11-11T15:28:03;1.73;;;1.00;;
12306;SDS011;6216;51.146;7.008;2022-11-11T15:33:34;3.10;;;1.20;;
12306;SDS011;6216;51.146;7.008;2022-11-11T15:36:14;2.57;;;1.20;;
12306;SDS011;6216;51.146;7.008;2022-11-11T15:38:51;2.07;;;1.17;;
12306;SDS011;6216;51.146;7.008;2022-11-11T15:41:20;2.67;;;1.20;;
12306;SDS011;6216;51.146;7.008;2022-11-11T15:43:57;1.47;;;1.20;;
12306;SDS011;6216;51.146;7.008;2022-11-11T15:46:27;1.63;;;1.20;;
12306;SDS011;6216;51.146;7.008;2022-11-11T15:48:56;1.77;;;1.03;;
12306;SDS011;6216;51.146;7.008;2022-11-11T15:51:27;6.17;;;1.23;;
12306;SDS011;6216;51.146;7.008;2022-11-11T15:54:07;1.30;;;0.90;;
12306;SDS011;6216;51.146;7.008;2022-11-11T15:56:37;1.97;;;1.20;;
12306;SDS011;6216;51.146;7.008;2022-11-11T15:59:14;1.33;;;1.10;;
12306;SDS011;6216;51.146;7.008;2022-11-11T16:01:43;2.37;;;1.20;;
12306;SDS011;6216;51.146;7.008;2022-11-11T16:04:14;2.60;;;1.30;;
12306;SDS011;6216;51.146;7.008;2022-11-11T16:07:13;2.03;;;1.10;;
12306;SDS011;6216;51.146;7.008;2022-11-11T16:09:44;1.47;;;1.00;;
12306;SDS011;6216;51.146;7.008;2022-11-11T16:12:15;1.90;;;1.27;;